Terminal Aerodrome Forecast
Issued by NWS Pendleton, OR

Home | Current Version | Previous Version | Text Only | Print | Product List | Glossary On
Versions: 1 2 3 4 5 6 7 8 9 10 11 12 13 14 15 16 17 18 19 20 21 22 23 24 25 26 27 28 29 30 31
000
FTUS46 KPDT 190000 AAA
TAFPDT
TAF AMD
KPDT 190013Z 1900/1924 13005KT 6SM BR VCSH SCT060 OVC100
      TEMPO 1900/1902 4SM -SHRA BR BKN060 OVC080
     FM190700 14006KT 5SM -RA BR BKN050 OVC060
     FM190900 16008KT 3SM -RA BR BKN040 OVC050
     FM191300 19010KT 3SM RA BKN020 OVC030
      TEMPO 1914/1917 2SM RA BR BKN010 OVC018
     FM191900 22006KT P6SM SCT035 BKN045=

USA.gov is the U.S. government's official web portal to all federal, state and local government web resources and services.